createdAt,value
2023-04-16T00:04:55.374Z,1747.06699
2023-04-16T00:19:57.122Z,1766.64519
2023-04-16T00:34:58.848Z,1799.86618
2023-04-16T00:50:00.580Z,1831.85285
2023-04-16T01:05:02.399Z,1828.10418
2023-04-16T01:20:04.164Z,1778.36811
2023-04-16T01:35:05.916Z,1751.63448
2023-04-16T02:51:05.103Z,1859.82007
2023-04-16T03:06:06.913Z,1893.99343
2023-04-16T03:21:08.709Z,1903.40959
2023-04-16T03:36:10.559Z,1911.55542
2023-04-16T03:51:12.273Z,1942.02948
2023-04-16T04:06:14.041Z,1956.20488
2023-04-16T04:21:15.770Z,1986.65728
2023-04-16T04:36:17.511Z,2004.48816
2023-04-16T04:51:19.275Z,2018.07279
2023-04-16T05:06:21.057Z,2021.11664
2023-04-16T05:21:22.826Z,2050.49782
2023-04-16T05:36:24.564Z,2044.24154
2023-04-16T05:51:26.327Z,2030.30353
2023-04-16T06:06:28.041Z,2008.996
2023-04-16T06:21:29.820Z,1949.09141
2023-04-16T06:36:31.613Z,1917.02482
2023-04-16T06:51:33.397Z,1870.20287
2023-04-16T07:06:35.184Z,1847.00256
2023-04-16T07:21:37.016Z,1898.01749
2023-04-16T07:36:38.762Z,1857.24235
2023-04-16T07:51:40.663Z,1814.48932
2023-04-16T08:06:42.445Z,1784.28811
2023-04-16T08:21:44.347Z,1777.18882
2023-04-16T08:36:46.147Z,1797.45187
2023-04-16T08:51:47.893Z,1773.66032
2023-04-16T09:06:49.626Z,1730.14898
2023-04-16T09:21:51.575Z,1685.53509
2023-04-16T09:36:53.329Z,1573.69397
2023-04-16T09:51:55.092Z,1348.08904
2023-04-16T10:06:56.844Z,1274.97672
2023-04-16T10:21:58.574Z,1303.50245
2023-04-16T10:37:00.344Z,1337.32586
2023-04-16T10:52:02.333Z,1497.20722
2023-04-16T11:07:04.261Z,1588.61934
2023-04-16T11:22:06.040Z,1632.1564
2023-04-16T11:37:07.757Z,1602.87131
2023-04-16T11:52:09.730Z,1595.23859
2023-04-16T12:07:11.443Z,1610.57742
2023-04-16T12:22:13.193Z,1628.19004
2023-04-16T12:37:14.971Z,1652.28163
2023-04-16T12:52:17.063Z,1707.00686
2023-04-16T13:07:18.821Z,1749.34775
2023-04-16T13:22:20.596Z,1768.97739
2023-04-16T13:37:22.381Z,1823.12975
2023-04-16T13:52:24.185Z,1862.40494
2023-04-16T14:07:25.971Z,1885.99628
2023-04-16T14:22:27.739Z,1942.02948
2023-04-16T14:37:29.473Z,1976.40168
2023-04-16T14:52:31.209Z,1991.0852
2023-04-16T15:07:33.021Z,2056.79252
2023-04-16T15:22:34.778Z,1988.13106
2023-04-16T15:37:36.597Z,1957.63381
2023-04-16T15:52:38.312Z,1663.5635
2023-04-16T16:07:40.089Z,1627.20146
2023-04-16T16:22:41.893Z,1624.24292
2023-04-16T16:37:43.724Z,1554.52485
2023-04-16T16:52:45.424Z,1545.55989
2023-04-16T17:07:47.142Z,1582.0548
2023-04-16T17:22:48.890Z,1624.24292
2023-04-16T17:37:50.698Z,1640.14737
2023-04-16T17:52:52.385Z,1682.36082
2023-04-16T18:07:54.234Z,1724.58222
2023-04-16T18:22:55.984Z,1760.84149
2023-04-16T18:37:57.758Z,1779.54897
2023-04-16T18:52:59.569Z,1783.10096
2023-04-16T19:08:01.322Z,1795.04403
2023-04-16T19:23:03.090Z,1792.64264
2023-04-16T19:38:04.819Z,1813.26166
2023-04-16T19:53:06.585Z,1813.26166
2023-04-16T20:08:08.309Z,1814.48932
2023-04-16T20:23:10.051Z,1808.36757
2023-04-16T20:38:11.756Z,1790.24766
2023-04-16T20:53:13.547Z,1776.0111
2023-04-16T21:08:15.300Z,1789.05257
2023-04-16T21:23:17.011Z,1785.47684
2023-04-16T21:38:18.796Z,1804.7143
2023-04-16T21:53:20.581Z,1786.66716
2023-04-16T22:08:25.004Z,1789.05257
2023-04-16T22:23:27.021Z,1783.10096
2023-04-16T22:38:28.799Z,1843.19169
2023-04-16T22:53:30.626Z,1900.70972
2023-04-16T23:08:32.443Z,1930.83623
2023-04-16T23:23:34.251Z,1969.14084
2023-04-16T23:38:35.972Z,1994.04812
2023-04-16T23:53:37.717Z,1980.78394
